Time;durP1;ratioP1;P1;durP2;ratioP2;P2;SDS_P1;SDS_P2;PMS_P1;PMS_P2;Temp;Humidity;BMP_temperature;BMP_pressure;BME280_temperature;BME280_humidity;BME280_pressure;Samples;Min_cycle;Max_cycle;Signal;HPM_P1;HPM_P2
2022/06/26 00:00:26;;;;;;;;;;;16.50;99.90;;;;;;5076090;28;20002;-83
2022/06/26 00:02:51;;;;;;;;;;;16.50;99.90;;;;;;5076827;28;19908;-83
2022/06/26 00:05:17;;;;;;;;;;;16.50;99.90;;;;;;5065544;28;20289;-83
2022/06/26 00:07:42;;;;;;;;;;;16.40;99.90;;;;;;5056785;28;19917;-83
2022/06/26 00:10:08;;;;;;;;;;;16.30;99.90;;;;;;5054709;28;19977;-83
2022/06/26 00:12:34;;;;;;;;;;;16.20;99.90;;;;;;5071955;28;19920;-82
2022/06/26 00:15:00;;;;;;;;;;;16.20;99.90;;;;;;5075942;28;19908;-82
2022/06/26 00:17:25;;;;;;;;;;;16.20;99.90;;;;;;5075785;28;19909;-82
2022/06/26 00:19:53;;;;;;;;;;;16.20;99.90;;;;;;5076111;28;19956;-83
2022/06/26 00:22:19;;;;;;;;;;;16.30;99.90;;;;;;5108419;28;19909;-82
2022/06/26 00:24:45;;;;;;;;;;;16.30;99.90;;;;;;5074331;28;19920;-83
2022/06/26 00:27:11;;;;;;;;;;;16.30;99.90;;;;;;5075812;28;19915;-83
2022/06/26 00:29:36;;;;;;;;;;;16.30;99.90;;;;;;5074383;28;19908;-83
2022/06/26 00:32:02;;;;;;;;;;;16.30;99.90;;;;;;5075710;28;19908;-83
2022/06/26 00:34:28;;;;;;;;;;;16.20;99.90;;;;;;5075482;28;19909;-83
2022/06/26 00:36:53;;;;;;;;;;;16.20;99.90;;;;;;5074338;28;19920;-82
2022/06/26 00:39:19;;;;;;;;;;;16.10;99.90;;;;;;5075660;28;19908;-82
2022/06/26 00:41:45;;;;;;;;;;;16.00;99.90;;;;;;5075455;28;19909;-83
2022/06/26 00:44:13;;;;;;;;;;;15.90;99.90;;;;;;5075281;28;19916;-83
2022/06/26 00:46:39;;;;;;;;;;;15.80;99.90;;;;;;5075455;28;19915;-83
2022/06/26 00:49:04;;;;;;;;;;;15.70;99.90;;;;;;5075180;28;19908;-83
2022/06/26 00:51:30;;;;;;;;;;;15.70;99.90;;;;;;5075267;28;19962;-83
2022/06/26 00:53:55;;;;;;;;;;;15.70;99.90;;;;;;5073950;28;20348;-82
2022/06/26 00:56:21;;;;;;;;;;;15.70;99.90;;;;;;5075534;28;20258;-83
2022/06/26 00:58:46;;;;;;;;;;;15.80;99.90;;;;;;5108047;28;20250;-83
2022/06/26 01:01:12;;;;;;;;;;;15.70;99.90;;;;;;5056320;28;19908;-83
2022/06/26 01:03:37;;;;;;;;;;;15.70;99.90;;;;;;5055027;28;19940;-83
2022/06/26 01:06:05;;;;;;;;;;;15.60;99.90;;;;;;5053923;28;20398;-83
2022/06/26 01:08:31;;;;;;;;;;;15.40;99.90;;;;;;5055693;28;20289;-83
2022/06/26 01:10:56;;;;;;;;;;;15.30;99.90;;;;;;5072680;28;19913;-83
2022/06/26 01:13:22;;;;;;;;;;;15.20;99.90;;;;;;5075925;28;19908;-83
2022/06/26 01:15:47;;;;;;;;;;;15.20;99.90;;;;;;5074995;28;19909;-83
2022/06/26 01:18:13;;;;;;;;;;;15.20;99.90;;;;;;5074957;28;20011;-83
2022/06/26 01:20:39;;;;;;;;;;;15.20;99.90;;;;;;5075301;28;19909;-83
2022/06/26 01:23:06;;;;;;;;;;;15.30;99.90;;;;;;5074836;28;20066;-83
2022/06/26 01:25:41;;;;;;;;;;;15.20;99.90;;;;;;5074652;28;20385;-83
2022/06/26 01:28:07;;;;;;;;;;;15.20;99.90;;;;;;5073262;28;20003;-83
2022/06/26 01:30:33;;;;;;;;;;;15.10;99.90;;;;;;5073473;28;19970;-83
2022/06/26 01:32:58;;;;;;;;;;;15.00;99.90;;;;;;5073422;28;19916;-83
2022/06/26 01:35:24;;;;;;;;;;;15.00;99.90;;;;;;5073156;28;19909;-83
2022/06/26 01:37:50;;;;;;;;;;;15.10;99.90;;;;;;5074421;28;19908;-83
2022/06/26 01:40:15;;;;;;;;;;;15.00;99.90;;;;;;5074515;28;19944;-83
2022/06/26 01:42:41;;;;;;;;;;;15.00;99.90;;;;;;5074523;28;20351;-83
2022/06/26 01:45:06;;;;;;;;;;;15.00;99.90;;;;;;5074301;28;19970;-83
2022/06/26 01:47:32;;;;;;;;;;;15.00;99.90;;;;;;5074373;28;19908;-83
2022/06/26 01:49:57;;;;;;;;;;;15.00;99.90;;;;;;5074470;28;19908;-83
2022/06/26 01:52:23;;;;;;;;;;;15.00;99.90;;;;;;5073546;28;19921;-83
2022/06/26 01:54:48;;;;;;;;;;;15.00;99.90;;;;;;5073063;28;19939;-83
2022/06/26 01:57:14;;;;;;;;;;;15.00;99.90;;;;;;5074228;28;19951;-83
2022/06/26 01:59:39;;;;;;;;;;;15.00;99.90;;;;;;5072876;28;19915;-83
2022/06/26 02:02:05;;;;;;;;;;;15.00;99.90;;;;;;5074256;28;19999;-83
2022/06/26 02:04:30;;;;;;;;;;;15.00;99.90;;;;;;5074102;28;19912;-83
2022/06/26 02:06:56;;;;;;;;;;;15.10;99.90;;;;;;5074121;28;19920;-82
2022/06/26 02:14:50;;;;;;;;;;;15.00;99.90;;;;;;5075337;28;19957;-83
2022/06/26 02:17:15;;;;;;;;;;;15.00;99.90;;;;;;5073612;28;19999;-83
2022/06/26 02:19:41;;;;;;;;;;;14.90;99.90;;;;;;5074001;28;19931;-83
2022/06/26 02:22:06;;;;;;;;;;;14.80;99.90;;;;;;5074401;28;19908;-83
2022/06/26 02:24:32;;;;;;;;;;;14.60;99.90;;;;;;5073850;28;20316;-82
2022/06/26 02:26:57;;;;;;;;;;;14.60;99.90;;;;;;5073947;28;20288;-83
2022/06/26 02:29:23;;;;;;;;;;;14.60;99.90;;;;;;5074078;28;20288;-83
2022/06/26 02:31:48;;;;;;;;;;;14.50;99.90;;;;;;5074098;28;19913;-83
2022/06/26 02:34:14;;;;;;;;;;;14.50;99.90;;;;;;5073013;28;19935;-83
2022/06/26 02:36:39;;;;;;;;;;;14.40;99.90;;;;;;5073737;28;19916;-83
2022/06/26 02:39:05;;;;;;;;;;;14.30;99.90;;;;;;5072368;28;19916;-83
2022/06/26 02:41:30;;;;;;;;;;;14.20;99.90;;;;;;5073939;28;19909;-83
2022/06/26 02:43:56;;;;;;;;;;;14.10;99.90;;;;;;5072390;28;19909;-83
2022/06/26 02:46:21;;;;;;;;;;;14.10;99.90;;;;;;5073867;28;19909;-83
2022/06/26 02:48:47;;;;;;;;;;;14.10;99.90;;;;;;5072427;28;19908;-83
2022/06/26 02:51:12;;;;;;;;;;;14.20;99.90;;;;;;5073666;28;20419;-83
2022/06/26 02:53:38;;;;;;;;;;;14.30;99.90;;;;;;5073730;28;19920;-83
2022/06/26 02:56:04;;;;;;;;;;;14.30;99.90;;;;;;5074333;28;19916;-83
2022/06/26 02:58:29;;;;;;;;;;;14.40;99.90;;;;;;5073613;28;19908;-83
2022/06/26 03:00:55;;;;;;;;;;;14.40;99.90;;;;;;5072442;28;19916;-83
2022/06/26 03:03:20;;;;;;;;;;;14.40;99.90;;;;;;5074894;28;19916;-83
2022/06/26 03:05:46;;;;;;;;;;;14.40;99.90;;;;;;5075963;28;19912;-83
2022/06/26 03:08:11;;;;;;;;;;;14.30;99.90;;;;;;5076115;28;20483;-83
2022/06/26 03:10:37;;;;;;;;;;;14.30;99.90;;;;;;5077330;28;20379;-83
2022/06/26 03:13:03;;;;;;;;;;;14.30;99.90;;;;;;5075883;28;20361;-83
2022/06/26 03:15:28;;;;;;;;;;;14.30;99.90;;;;;;5077740;28;19918;-83
2022/06/26 03:17:54;;;;;;;;;;;14.30;99.90;;;;;;5078119;28;19915;-83
2022/06/26 03:20:20;;;;;;;;;;;14.30;99.90;;;;;;5076041;28;19912;-83
2022/06/26 03:22:46;;;;;;;;;;;14.30;99.90;;;;;;5076948;28;19934;-83
2022/06/26 03:25:12;;;;;;;;;;;14.30;99.90;;;;;;5075664;28;20372;-83
2022/06/26 03:27:38;;;;;;;;;;;14.30;99.90;;;;;;5077487;28;19962;-83
2022/06/26 03:30:04;;;;;;;;;;;14.30;99.90;;;;;;5075774;28;20396;-83
2022/06/26 03:32:30;;;;;;;;;;;14.30;99.90;;;;;;5076052;28;19912;-83
2022/06/26 03:34:55;;;;;;;;;;;14.30;99.90;;;;;;5075374;28;20418;-83
2022/06/26 03:37:21;;;;;;;;;;;14.40;99.90;;;;;;5076926;28;19999;-83
2022/06/26 03:39:46;;;;;;;;;;;14.40;99.90;;;;;;5076974;28;19915;-83
2022/06/26 03:42:12;;;;;;;;;;;14.40;99.90;;;;;;5077449;28;19909;-83
2022/06/26 03:44:37;;;;;;;;;;;14.50;99.90;;;;;;5075160;28;20383;-83
2022/06/26 03:47:03;;;;;;;;;;;14.50;99.90;;;;;;5075028;28;19919;-83
2022/06/26 03:49:28;;;;;;;;;;;14.50;99.90;;;;;;5076450;28;20353;-83
2022/06/26 03:51:54;;;;;;;;;;;14.50;99.90;;;;;;5074952;28;19916;-83
2022/06/26 03:54:19;;;;;;;;;;;14.50;99.90;;;;;;5075082;28;19916;-83
2022/06/26 03:56:45;;;;;;;;;;;14.50;99.90;;;;;;5075098;28;19932;-83
2022/06/26 03:59:11;;;;;;;;;;;14.50;99.90;;;;;;5076438;28;19908;-83
2022/06/26 04:01:36;;;;;;;;;;;14.50;99.90;;;;;;5075957;28;20360;-83
2022/06/26 04:04:02;;;;;;;;;;;14.50;99.90;;;;;;5074744;28;19917;-83
2022/06/26 04:06:28;;;;;;;;;;;14.50;99.90;;;;;;5074663;28;19917;-83
2022/06/26 04:08:53;;;;;;;;;;;14.50;99.90;;;;;;5074705;28;20384;-83
2022/06/26 04:11:19;;;;;;;;;;;14.50;99.90;;;;;;5075918;28;19908;-83
2022/06/26 04:13:44;;;;;;;;;;;14.50;99.90;;;;;;5075497;28;19909;-83
2022/06/26 04:16:10;;;;;;;;;;;14.50;99.90;;;;;;5074543;28;19969;-83
2022/06/26 04:18:35;;;;;;;;;;;14.50;99.90;;;;;;5075922;28;19908;-83
2022/06/26 04:21:01;;;;;;;;;;;14.50;99.90;;;;;;5074472;28;19935;-83
2022/06/26 04:23:27;;;;;;;;;;;14.60;99.90;;;;;;5074400;28;19962;-83
2022/06/26 04:25:53;;;;;;;;;;;14.60;99.90;;;;;;5074247;28;19913;-83
2022/06/26 04:28:18;;;;;;;;;;;14.60;99.90;;;;;;5075564;28;20265;-83
2022/06/26 04:30:44;;;;;;;;;;;14.70;99.90;;;;;;5075633;28;19908;-83
2022/06/26 04:33:09;;;;;;;;;;;14.70;99.90;;;;;;5074918;28;20349;-83
2022/06/26 04:35:35;;;;;;;;;;;14.70;99.90;;;;;;5075124;28;20368;-84
2022/06/26 04:38:01;;;;;;;;;;;14.80;99.90;;;;;;5076512;28;19916;-84
2022/06/26 04:40:26;;;;;;;;;;;14.80;99.90;;;;;;5075936;28;19943;-84
2022/06/26 04:42:52;;;;;;;;;;;14.80;99.90;;;;;;5076971;28;20007;-83
2022/06/26 04:45:18;;;;;;;;;;;14.80;99.90;;;;;;5075086;28;19959;-83
2022/06/26 04:47:43;;;;;;;;;;;14.90;99.90;;;;;;5076193;28;19920;-83
2022/06/26 04:50:09;;;;;;;;;;;14.90;99.90;;;;;;5076094;28;20386;-83
2022/06/26 04:52:34;;;;;;;;;;;15.00;99.90;;;;;;5075509;28;19948;-83
2022/06/26 04:55:00;;;;;;;;;;;15.00;99.90;;;;;;5074088;28;19993;-83
2022/06/26 04:57:26;;;;;;;;;;;15.10;99.90;;;;;;5074362;28;19909;-84
2022/06/26 04:59:51;;;;;;;;;;;15.10;99.90;;;;;;5075334;28;19935;-84
2022/06/26 05:02:17;;;;;;;;;;;15.20;99.90;;;;;;5075671;28;19909;-83
2022/06/26 05:04:43;;;;;;;;;;;15.20;99.90;;;;;;5073787;28;19916;-83
2022/06/26 05:07:08;;;;;;;;;;;15.20;99.90;;;;;;5074118;28;19910;-83
2022/06/26 05:09:34;;;;;;;;;;;15.20;99.90;;;;;;5073817;28;19948;-83
2022/06/26 05:11:59;;;;;;;;;;;15.20;99.90;;;;;;5074870;28;20329;-83
2022/06/26 05:14:25;;;;;;;;;;;15.30;99.90;;;;;;5073551;28;20002;-85
2022/06/26 05:16:51;;;;;;;;;;;15.30;99.90;;;;;;5073479;28;19908;-84
2022/06/26 05:19:16;;;;;;;;;;;15.30;99.90;;;;;;5074999;28;20258;-84
2022/06/26 05:21:42;;;;;;;;;;;15.40;99.90;;;;;;5073665;28;19909;-84
2022/06/26 05:24:08;;;;;;;;;;;15.40;99.90;;;;;;5074727;28;19908;-84
2022/06/26 05:26:34;;;;;;;;;;;15.40;99.90;;;;;;5072541;28;19912;-84
2022/06/26 05:28:59;;;;;;;;;;;15.40;99.90;;;;;;5073537;28;19909;-85
2022/06/26 05:31:25;;;;;;;;;;;15.50;99.90;;;;;;5073771;28;20308;-85
2022/06/26 05:33:51;;;;;;;;;;;15.50;99.90;;;;;;5073096;28;19908;-85
2022/06/26 05:36:16;;;;;;;;;;;15.50;99.90;;;;;;5072841;28;19915;-85
2022/06/26 05:38:42;;;;;;;;;;;15.60;99.90;;;;;;5074182;28;19909;-86
2022/06/26 05:41:08;;;;;;;;;;;15.50;99.90;;;;;;5071968;28;19909;-84
2022/06/26 05:43:34;;;;;;;;;;;15.50;99.90;;;;;;5074502;28;19908;-85
2022/06/26 05:46:00;;;;;;;;;;;15.50;99.90;;;;;;5072487;28;19915;-85
2022/06/26 05:48:26;;;;;;;;;;;15.50;99.90;;;;;;5072562;28;19931;-85
2022/06/26 05:50:51;;;;;;;;;;;15.60;99.90;;;;;;5069142;28;20494;-84
2022/06/26 05:53:17;;;;;;;;;;;15.70;99.90;;;;;;5053675;28;19952;-84
2022/06/26 05:55:43;;;;;;;;;;;15.70;99.90;;;;;;5067679;28;19905;-85
2022/06/26 05:58:09;;;;;;;;;;;15.80;99.90;;;;;;5073837;28;19905;-85
2022/06/26 06:00:35;;;;;;;;;;;15.90;99.90;;;;;;5072686;28;19904;-84
2022/06/26 06:03:00;;;;;;;;;;;15.90;99.90;;;;;;5072456;28;20326;-85
2022/06/26 06:05:26;;;;;;;;;;;16.00;99.90;;;;;;5072171;28;19916;-85
2022/06/26 06:07:52;;;;;;;;;;;16.10;99.90;;;;;;5072245;28;19911;-85
2022/06/26 06:10:19;;;;;;;;;;;16.20;99.90;;;;;;5073747;28;19910;-85
2022/06/26 06:12:48;;;;;;;;;;;16.40;99.90;;;;;;5073131;28;19958;-85
2022/06/26 06:15:13;;;;;;;;;;;16.50;99.90;;;;;;5073173;28;19919;-85
2022/06/26 06:17:42;;;;;;;;;;;16.70;99.90;;;;;;5071405;28;19904;-85
2022/06/26 06:20:09;;;;;;;;;;;16.90;99.90;;;;;;5072249;28;20337;-85
2022/06/26 06:22:35;;;;;;;;;;;17.10;99.90;;;;;;5073568;28;24150;-84
2022/06/26 06:25:00;;;;;;;;;;;17.30;99.90;;;;;;5071804;28;19908;-84
2022/06/26 06:27:26;;;;;;;;;;;17.40;99.90;;;;;;5073604;28;19904;-84
2022/06/26 06:29:52;;;;;;;;;;;17.50;99.90;;;;;;5073572;28;19960;-83
2022/06/26 06:32:17;;;;;;;;;;;17.60;99.90;;;;;;5072209;28;19905;-83
2022/06/26 06:34:43;;;;;;;;;;;17.70;99.90;;;;;;5073003;28;19914;-84
2022/06/26 06:37:08;;;;;;;;;;;17.90;99.90;;;;;;5072757;28;20292;-83
2022/06/26 06:39:34;;;;;;;;;;;18.00;99.90;;;;;;5075763;28;19995;-84
2022/06/26 06:41:59;;;;;;;;;;;18.10;99.90;;;;;;5076957;28;19904;-84
2022/06/26 06:44:25;;;;;;;;;;;18.20;99.90;;;;;;5076942;28;19909;-84
2022/06/26 06:46:51;;;;;;;;;;;18.20;99.90;;;;;;5077057;28;19998;-83
2022/06/26 06:49:16;;;;;;;;;;;18.30;99.90;;;;;;5077445;28;19905;-83
2022/06/26 06:51:42;;;;;;;;;;;18.40;99.90;;;;;;5077137;28;19912;-83
2022/06/26 06:54:07;;;;;;;;;;;18.50;99.90;;;;;;5076191;28;19916;-83
2022/06/26 06:56:33;;;;;;;;;;;18.70;99.90;;;;;;5077363;28;19908;-84
2022/06/26 06:59:00;;;;;;;;;;;18.80;99.90;;;;;;5075877;28;19911;-83
2022/06/26 07:01:25;;;;;;;;;;;19.00;99.90;;;;;;5077264;28;19912;-84
2022/06/26 07:03:51;;;;;;;;;;;19.10;99.90;;;;;;5076981;28;19905;-84
2022/06/26 07:06:16;;;;;;;;;;;19.20;99.90;;;;;;5075648;28;19918;-84
2022/06/26 07:08:42;;;;;;;;;;;19.40;99.90;;;;;;5077233;28;19934;-84
2022/06/26 07:11:07;;;;;;;;;;;19.50;99.90;;;;;;5076790;28;19908;-84
2022/06/26 07:13:33;;;;;;;;;;;19.50;99.90;;;;;;5075747;28;19915;-84
2022/06/26 07:15:58;;;;;;;;;;;19.70;99.90;;;;;;5075560;28;19911;-84
2022/06/26 07:18:24;;;;;;;;;;;19.80;99.90;;;;;;5075715;28;19904;-84
2022/06/26 07:20:50;;;;;;;;;;;20.00;99.90;;;;;;5076936;28;20364;-84
2022/06/26 07:23:16;;;;;;;;;;;20.10;99.90;;;;;;5075664;28;19912;-84
2022/06/26 07:25:42;;;;;;;;;;;20.30;99.90;;;;;;5076436;28;19919;-84
2022/06/26 07:28:08;;;;;;;;;;;20.50;99.90;;;;;;5075502;28;19910;-84
2022/06/26 07:30:34;;;;;;;;;;;20.60;99.90;;;;;;5077250;28;19927;-84
2022/06/26 07:34:12;;;;;;;;;;;20.80;99.90;;;;;;5076786;28;19909;-84
2022/06/26 07:35:51;;;;;;;;;;;20.90;99.90;;;;;;5076303;28;19908;-85
2022/06/26 07:38:17;;;;;;;;;;;21.00;99.90;;;;;;5076796;28;19904;-84
2022/06/26 07:40:42;;;;;;;;;;;21.10;99.90;;;;;;5075224;28;19904;-84
2022/06/26 07:43:08;;;;;;;;;;;21.20;99.90;;;;;;5075202;28;19904;-84
2022/06/26 07:45:33;;;;;;;;;;;21.30;99.90;;;;;;5074993;28;19912;-84
2022/06/26 07:47:59;;;;;;;;;;;21.40;99.90;;;;;;5075122;28;20308;-85
2022/06/26 07:50:24;;;;;;;;;;;21.50;99.90;;;;;;5074232;28;20288;-85
2022/06/26 07:52:50;;;;;;;;;;;21.60;99.90;;;;;;5074962;28;20007;-84
2022/06/26 07:55:16;;;;;;;;;;;21.80;99.90;;;;;;5074967;28;19905;-84
2022/06/26 07:57:42;;;;;;;;;;;21.90;99.90;;;;;;5076029;28;19910;-84
2022/06/26 08:00:08;;;;;;;;;;;22.10;99.90;;;;;;5075744;28;19915;-86
2022/06/26 08:02:33;;;;;;;;;;;22.30;99.80;;;;;;5076349;28;20373;-85
2022/06/26 08:04:59;;;;;;;;;;;22.40;99.30;;;;;;5074562;28;20383;-85
2022/06/26 08:07:24;;;;;;;;;;;22.50;98.00;;;;;;5075986;28;19904;-84
2022/06/26 08:09:50;;;;;;;;;;;22.50;98.50;;;;;;5075834;28;19931;-84
2022/06/26 08:12:15;;;;;;;;;;;22.60;98.90;;;;;;5074654;28;19904;-84
2022/06/26 08:14:41;;;;;;;;;;;22.70;98.10;;;;;;5075733;28;20269;-84
2022/06/26 08:17:06;;;;;;;;;;;22.80;98.20;;;;;;5074568;28;20371;-85
2022/06/26 08:19:32;;;;;;;;;;;23.00;97.50;;;;;;5075821;28;19904;-85
2022/06/26 08:22:00;;;;;;;;;;;23.20;96.40;;;;;;5074531;28;20321;-85
2022/06/26 08:24:26;;;;;;;;;;;23.30;96.50;;;;;;5075463;28;19947;-84
2022/06/26 08:26:51;;;;;;;;;;;23.40;94.90;;;;;;5087648;28;19947;-84
2022/06/26 08:29:17;;;;;;;;;;;23.50;94.90;;;;;;5075862;28;19904;-85
2022/06/26 08:31:42;;;;;;;;;;;23.60;95.40;;;;;;5075631;28;19904;-85
2022/06/26 08:34:08;;;;;;;;;;;23.70;94.30;;;;;;5075588;28;20003;-85
2022/06/26 08:36:34;;;;;;;;;;;23.70;95.20;;;;;;5075692;28;19962;-85
2022/06/26 08:38:59;;;;;;;;;;;23.90;94.30;;;;;;5076028;28;19947;-85
2022/06/26 08:41:27;;;;;;;;;;;24.00;94.60;;;;;;5075598;28;19904;-85
2022/06/26 08:43:53;;;;;;;;;;;24.10;93.60;;;;;;5075364;28;19950;-85
2022/06/26 08:46:21;;;;;;;;;;;24.20;93.80;;;;;;5075313;28;19962;-85
2022/06/26 08:48:47;;;;;;;;;;;24.30;94.10;;;;;;5082681;28;20398;-85
2022/06/26 08:51:13;;;;;;;;;;;24.30;94.20;;;;;;5073792;28;19934;-85
2022/06/26 08:53:39;;;;;;;;;;;24.40;93.60;;;;;;5086295;28;20368;-85
2022/06/26 08:56:05;;;;;;;;;;;24.40;93.00;;;;;;5093892;28;20364;-85
2022/06/26 08:58:30;;;;;;;;;;;24.60;93.10;;;;;;5080389;28;19915;-85
2022/06/26 09:00:56;;;;;;;;;;;24.80;92.60;;;;;;5073688;28;19909;-85
2022/06/26 09:03:21;;;;;;;;;;;24.90;91.50;;;;;;5075065;28;19904;-85
2022/06/26 09:05:47;;;;;;;;;;;25.00;90.60;;;;;;5075103;28;20392;-85
2022/06/26 09:08:16;;;;;;;;;;;25.10;91.10;;;;;;5075065;28;19908;-84
2022/06/26 09:10:43;;;;;;;;;;;25.20;89.60;;;;;;5073544;28;19905;-84
2022/06/26 09:13:09;;;;;;;;;;;25.20;89.00;;;;;;5073492;28;19911;-85
2022/06/26 09:15:37;;;;;;;;;;;25.30;87.70;;;;;;5073374;28;19905;-85
2022/06/26 09:18:04;;;;;;;;;;;25.40;86.20;;;;;;5073408;28;19944;-85
2022/06/26 09:20:30;;;;;;;;;;;25.50;87.20;;;;;;5074672;28;20360;-85
2022/06/26 09:22:56;;;;;;;;;;;25.60;85.30;;;;;;5074575;28;19904;-85
2022/06/26 09:25:34;;;;;;;;;;;25.60;83.50;;;;;;5074264;28;19954;-84
2022/06/26 09:28:11;;;;;;;;;;;25.70;82.90;;;;;;5070074;28;19948;-85
2022/06/26 09:30:56;;;;;;;;;;;25.90;85.60;;;;;;5053339;28;19955;-85
2022/06/26 09:33:26;;;;;;;;;;;26.10;85.50;;;;;;5053891;28;19905;-85
2022/06/26 09:35:52;;;;;;;;;;;26.30;81.80;;;;;;5053052;28;19904;-85
2022/06/26 09:38:36;;;;;;;;;;;26.40;81.30;;;;;;5053230;28;19905;-85
2022/06/26 09:41:02;;;;;;;;;;;26.40;79.70;;;;;;5053703;28;19971;-85
2022/06/26 09:43:27;;;;;;;;;;;26.60;81.00;;;;;;5054997;28;20373;-85
2022/06/26 09:45:54;;;;;;;;;;;26.70;80.40;;;;;;5052785;28;19932;-85
2022/06/26 09:48:20;;;;;;;;;;;26.90;82.10;;;;;;5053165;28;20273;-86
2022/06/26 09:50:46;;;;;;;;;;;27.00;81.00;;;;;;5053039;28;19905;-85
2022/06/26 09:53:13;;;;;;;;;;;27.10;78.20;;;;;;5052685;28;19912;-85
2022/06/26 09:55:39;;;;;;;;;;;27.10;78.20;;;;;;5052768;28;19936;-85
2022/06/26 09:58:08;;;;;;;;;;;27.10;78.20;;;;;;5052811;28;19958;-86
2022/06/26 10:00:35;;;;;;;;;;;27.20;76.00;;;;;;5054178;28;19912;-85
2022/06/26 10:08:31;;;;;;;;;;;27.40;77.30;;;;;;5054189;28;19958;-86
2022/06/26 10:10:58;;;;;;;;;;;27.40;74.30;;;;;;5052655;28;19955;-86
2022/06/26 10:13:24;;;;;;;;;;;27.40;74.40;;;;;;5052282;28;20426;-86
2022/06/26 10:16:02;;;;;;;;;;;27.60;77.50;;;;;;5052692;28;19950;-86
2022/06/26 10:18:40;;;;;;;;;;;27.60;72.10;;;;;;5052594;28;19905;-86
2022/06/26 10:21:08;;;;;;;;;;;27.60;73.50;;;;;;5053734;28;19931;-86
2022/06/26 10:23:37;;;;;;;;;;;27.60;74.00;;;;;;5052370;28;20365;-86
2022/06/26 10:26:12;;;;;;;;;;;27.60;75.70;;;;;;5053474;28;19974;-86
2022/06/26 10:28:37;;;;;;;;;;;27.70;76.10;;;;;;5053696;28;19995;-86
2022/06/26 10:31:07;;;;;;;;;;;27.80;72.70;;;;;;5052339;28;19905;-86
2022/06/26 10:33:32;;;;;;;;;;;27.90;73.30;;;;;;5052370;28;19949;-86
2022/06/26 10:35:58;;;;;;;;;;;27.90;71.70;;;;;;5052291;28;19909;-86
2022/06/26 10:38:23;;;;;;;;;;;27.90;73.80;;;;;;5053485;28;19908;-86
2022/06/26 10:43:53;;;;;;;;;;;28.10;71.20;;;;;;5054170;28;19912;-86
2022/06/26 10:46:20;;;;;;;;;;;28.20;73.20;;;;;;5067925;28;19908;-87
2022/06/26 10:48:49;;;;;;;;;;;28.30;73.30;;;;;;5053396;28;20042;-86
2022/06/26 10:51:22;;;;;;;;;;;28.40;70.00;;;;;;5052094;28;19911;-86
2022/06/26 10:53:48;;;;;;;;;;;28.50;69.90;;;;;;5053690;28;20011;-87
2022/06/26 10:56:13;;;;;;;;;;;28.60;70.10;;;;;;5053345;28;20029;-86
2022/06/26 10:58:44;;;;;;;;;;;28.60;70.40;;;;;;5052088;28;19908;-87
2022/06/26 11:01:10;;;;;;;;;;;28.70;67.40;;;;;;5053591;28;19944;-87
2022/06/26 11:03:36;;;;;;;;;;;28.80;65.80;;;;;;5053297;28;20320;-87
2022/06/26 11:06:07;;;;;;;;;;;29.00;68.40;;;;;;5051914;28;19962;-86
2022/06/26 11:08:39;;;;;;;;;;;29.00;65.30;;;;;;5053570;28;19904;-87
2022/06/26 11:11:07;;;;;;;;;;;29.10;65.80;;;;;;5052042;28;19909;-87
2022/06/26 11:13:34;;;;;;;;;;;29.20;64.20;;;;;;5053227;28;19904;-87
2022/06/26 11:16:00;;;;;;;;;;;29.20;68.50;;;;;;5051793;28;20003;-87
2022/06/26 11:18:31;;;;;;;;;;;29.20;63.20;;;;;;5053516;28;20395;-86
2022/06/26 11:20:57;;;;;;;;;;;29.10;64.30;;;;;;5051956;28;20324;-87
2022/06/26 11:23:26;;;;;;;;;;;29.20;65.80;;;;;;5051858;28;19904;-87
2022/06/26 11:25:57;;;;;;;;;;;29.30;63.70;;;;;;5055248;28;19909;-87
2022/06/26 11:28:32;;;;;;;;;;;29.20;63.80;;;;;;5055449;28;19905;-87
2022/06/26 11:30:59;;;;;;;;;;;29.30;65.50;;;;;;5055389;28;19905;-87
2022/06/26 11:33:26;;;;;;;;;;;29.40;64.70;;;;;;5056598;28;19909;-87
2022/06/26 11:35:53;;;;;;;;;;;29.50;63.20;;;;;;5056871;28;20254;-87
2022/06/26 11:38:19;;;;;;;;;;;29.60;65.50;;;;;;5055299;28;19911;-87
2022/06/26 11:40:45;;;;;;;;;;;29.70;63.40;;;;;;5055232;28;19911;-87
2022/06/26 11:43:11;;;;;;;;;;;29.70;63.20;;;;;;5055335;28;19912;-87
2022/06/26 11:45:39;;;;;;;;;;;29.90;65.20;;;;;;5056563;28;19988;-87
2022/06/26 11:48:07;;;;;;;;;;;30.00;64.70;;;;;;5056299;28;19912;-87
2022/06/26 11:50:33;;;;;;;;;;;30.10;62.90;;;;;;5055673;28;19959;-86
2022/06/26 11:52:59;;;;;;;;;;;30.20;62.40;;;;;;5055065;28;20354;-87
2022/06/26 11:55:26;;;;;;;1.88;0.50;;;30.40;64.80;;;;;;5054951;28;19948;-87
2022/06/26 11:57:55;;;;;;;1.17;0.60;;;30.50;62.10;;;;;;5054467;28;20025;-87
2022/06/26 12:00:22;;;;;;;0.70;0.50;;;30.50;62.30;;;;;;5054827;28;20071;-87
2022/06/26 12:02:49;;;;;;;0.60;0.50;;;30.40;61.20;;;;;;5055965;28;20017;-87
2022/06/26 12:05:23;;;;;;;0.43;0.40;;;30.50;63.50;;;;;;5054322;28;20064;-87
2022/06/26 12:07:50;;;;;;;0.90;0.50;;;30.60;64.10;;;;;;5055603;28;20013;-87
2022/06/26 12:10:35;;;;;;;1.17;0.52;;;30.70;61.20;;;;;;5055807;28;20350;-87
2022/06/26 12:13:02;;;;;;;1.58;0.40;;;30.90;63.10;;;;;;5054138;28;20021;-87
2022/06/26 12:15:33;;;;;;;0.40;0.30;;;30.90;58.50;;;;;;5054227;28;20025;-87
2022/06/26 12:18:02;;;;;;;1.13;0.43;;;30.90;59.80;;;;;;5054285;28;19955;-86
2022/06/26 12:20:34;;;;;;;;;;;30.80;59.90;;;;;;5055248;28;20549;-87
2022/06/26 12:22:59;;;;;;;;;;;30.80;61.50;;;;;;5054314;28;19909;-87
2022/06/26 12:25:25;;;;;;;;;;;30.70;59.70;;;;;;5054267;28;20045;-87
2022/06/26 12:27:50;;;;;;;;;;;30.70;60.40;;;;;;5054374;28;19912;-87
2022/06/26 12:30:16;;;;;;;;;;;30.70;61.60;;;;;;5054499;28;19940;-88
2022/06/26 12:32:42;;;;;;;;;;;30.80;60.80;;;;;;5054339;28;19905;-87
2022/06/26 12:35:07;;;;;;;;;;;30.80;59.00;;;;;;5053866;28;19905;-88
2022/06/26 12:37:33;;;;;;;;;;;30.80;60.60;;;;;;5054156;28;19911;-88
2022/06/26 12:39:59;;;;;;;;;;;30.90;59.20;;;;;;5054246;28;19983;-88
2022/06/26 12:42:24;;;;;;;;;;;31.00;60.00;;;;;;5054231;28;19905;-88
2022/06/26 12:44:50;;;;;;;;;;;31.00;59.80;;;;;;5054126;28;19908;-89
2022/06/26 12:47:15;;;;;;;;;;;31.00;59.50;;;;;;5055532;28;19905;-88
2022/06/26 12:49:41;;;;;;;;;;;30.90;59.10;;;;;;5054121;28;19905;-88
2022/06/26 12:52:07;;;;;;;;;;;30.80;59.20;;;;;;5053829;28;19904;-88
2022/06/26 12:54:32;;;;;;;;;;;30.80;60.70;;;;;;5055052;28;19909;-88
2022/06/26 12:56:58;;;;;;;;;;;30.90;60.40;;;;;;5053810;28;20057;-88
2022/06/26 12:59:23;;;;;;;;;;;30.90;59.50;;;;;;5054145;28;19909;-87
2022/06/26 13:01:49;;;;;;;;;;;30.80;60.20;;;;;;5053720;28;19912;-87
2022/06/26 13:04:14;;;;;;;;;;;30.70;59.90;;;;;;5055218;28;19912;-88
2022/06/26 13:06:40;;;;;;;;;;;30.70;60.50;;;;;;5054813;28;19909;-88
2022/06/26 13:09:06;;;;;;;;;;;30.60;59.30;;;;;;5055109;28;19905;-87
2022/06/26 13:11:32;;;;;;;;;;;30.60;60.40;;;;;;5054904;28;19904;-88
2022/06/26 13:13:57;;;;;;;;;;;30.60;60.60;;;;;;5054786;28;19948;-87
2022/06/26 13:16:23;;;;;;;;;;;30.60;60.80;;;;;;5054671;28;19905;-86
2022/06/26 13:18:48;;;;;;;;;;;30.60;61.80;;;;;;5054924;28;19909;-86
2022/06/26 13:21:14;;;;;;;;;;;30.60;60.50;;;;;;5054661;28;19909;-87
2022/06/26 13:23:40;;;;;;;;;;;30.70;62.90;;;;;;5053244;28;19909;-89
2022/06/26 13:26:05;;;;;;;;;;;30.80;60.70;;;;;;5054596;28;20323;-86
2022/06/26 13:28:31;;;;;;;;;;;30.80;60.20;;;;;;5053227;28;20369;-87
2022/06/26 13:30:56;;;;;;;;;;;30.80;60.20;;;;;;5053161;28;19912;-87
2022/06/26 13:33:23;;;;;;;;;;;30.70;60.30;;;;;;5053151;28;19905;-86
2022/06/26 13:35:49;;;;;;;;;;;30.60;61.20;;;;;;5053014;28;20003;-87
2022/06/26 13:38:15;;;;;;;;;;;30.50;61.60;;;;;;5054268;28;19943;-87
2022/06/26 13:40:40;;;;;;;;;;;30.50;60.50;;;;;;5052955;28;20368;-87
2022/06/26 13:43:06;;;;;;;;;;;30.30;60.90;;;;;;5053044;28;20418;-86
2022/06/26 13:45:31;;;;;;;;;;;30.40;63.20;;;;;;5052796;28;20412;-86
2022/06/26 13:47:57;;;;;;;;;;;30.40;63.10;;;;;;5052185;28;19905;-86
2022/06/26 13:50:23;;;;;;;;;;;30.30;62.50;;;;;;5053459;28;19904;-86
2022/06/26 13:52:49;;;;;;;;;;;30.20;64.10;;;;;;5053125;28;20373;-84
2022/06/26 13:55:15;;;;;;;;;;;30.30;64.30;;;;;;5052871;28;19909;-84
2022/06/26 13:57:40;;;;;;;;;;;30.40;63.00;;;;;;5052822;28;20443;-84
2022/06/26 14:00:06;;;;;;;;;;;30.30;62.80;;;;;;5052836;28;19996;-83
2022/06/26 14:02:32;;;;;;;;;;;30.20;63.20;;;;;;5052654;28;19951;-84
2022/06/26 14:04:58;;;;;;;;;;;30.20;63.20;;;;;;5054357;28;19912;-84
2022/06/26 14:07:28;;;;;;;;;;;30.20;62.60;;;;;;5052233;28;20468;-84
2022/06/26 14:09:54;;;;;;;;;;;30.40;61.70;;;;;;5054383;28;20345;-84
2022/06/26 14:12:19;;;;;;;;;;;30.50;63.20;;;;;;5052710;28;19909;-84
2022/06/26 14:14:45;;;;;;;;;;;30.60;61.90;;;;;;5053860;28;19915;-84
2022/06/26 14:17:11;;;;;;;;;;;30.70;61.40;;;;;;5052567;28;19974;-84
2022/06/26 14:19:36;;;;;;;;;;;30.60;61.70;;;;;;5053851;28;20399;-83
2022/06/26 14:27:30;;;;;;;;;;;30.30;63.40;;;;;;5054280;28;19916;-83